Nakhchivan Airport
UBBN : now visible

Airfield :











YOU CAN JOIN US ON...

 
LOGIN :

Register | Disclaimer

   EN    FR    IT 

 









Legend :    VFR   Marginal VFR   IFR   Intensive IFR   Very Intensive IFR
Visi :
Ceiling :
>= 8 km
>= 3000ft
5 to 8 km
1000 to 3000 ft
1500m to 5 km
500 to 1000 ft
800 to 1500m
200 to 500 ft
< 800m
< 200 ft
Symbols :   Thunderstorms  Fog  Heavy snow  Heavy precipitations  Wind > 20 kt






- Airport Elevation : 2863 ft
- IATA code : NAJ


UBBN - Nakhchivan

CURRENT METAR :
  • 241730Z 03008KT 9999 SCT100 05/02 Q1012 R14R/CLRD// NOSIG RMK MT OP QFE685

EXPIRED METARs :
  • 241700Z 34006KT 7000 SCT100 07/01 Q1012 R14R/CLRD// NOSIG RMK MT OP QFE684
  • 241630Z 28004KT 9999 SCT100 07/01 Q1012 R14R/CLRD// NOSIG RMK MT OP QFE684
  • 241600Z 32004KT 9999 SCT046 BKN090 11/00 Q1012 R14R/CLRD// NOSIG RMK MT OP QFE685
  • 241530Z 26006KT 9999 SCT046 BKN090 11/01 Q1012 R14R/CLRD// NOSIG RMK MT OP QFE684
  • 241500Z 28004KT 9999 SCT046 BKN090 13/M00 Q1012 R14R/CLRD// NOSIG RMK MT OP QFE684

TAF TAF UBBN
Valid from the 24 at 18:00 until the 25 at 18:00 UTC


241706Z 2418/2518 VRB04KT 7000 FEW036 BKN073 TX12/2512Z TN01/2503Z
TEMPO 2418/2506 03006KT 3000 BR SCT020 BKN063
TEMPO 2510/2518 24012KT -SHRA SCT035CB BKN080



MET'MAP, your aeronautical weather chart ! - Copyright ORBIFLY December 2007 - Disclaimer

ORBIFLY MET'MAP TEAM :

Programming & Development : Alexandra Zaïnal
Concept & original design : Baudouin d'Aumeries
Assistance for programming : Marc-Olivier Méhu
Technical & hardware support : Manuel Goepfert

Contact : metmap@orbifly.com




SOURCES & CREDITS :

   NOAA       Earth
Advisory